sensor_id;sensor_type;location;lat;lon;timestamp;P1;durP1;ratioP1;P2;durP2;ratioP2
23302;SDS011;11820;48.738;9.092;2024-01-07T00:01:10;23.23;;;16.23;;
23302;SDS011;11820;48.738;9.092;2024-01-07T00:03:36;19.50;;;16.07;;
23302;SDS011;11820;48.738;9.092;2024-01-07T00:06:01;24.23;;;17.70;;
23302;SDS011;11820;48.738;9.092;2024-01-07T00:08:27;20.83;;;15.93;;
23302;SDS011;11820;48.738;9.092;2024-01-07T00:10:52;17.77;;;14.67;;
23302;SDS011;11820;48.738;9.092;2024-01-07T00:13:18;19.50;;;16.17;;
23302;SDS011;11820;48.738;9.092;2024-01-07T00:15:43;21.10;;;16.53;;
23302;SDS011;11820;48.738;9.092;2024-01-07T00:18:08;19.17;;;16.57;;
23302;SDS011;11820;48.738;9.092;2024-01-07T00:20:34;19.90;;;16.20;;
23302;SDS011;11820;48.738;9.092;2024-01-07T00:22:59;17.83;;;15.80;;
23302;SDS011;11820;48.738;9.092;2024-01-07T00:25:24;19.03;;;16.20;;
23302;SDS011;11820;48.738;9.092;2024-01-07T00:27:50;21.60;;;18.13;;
23302;SDS011;11820;48.738;9.092;2024-01-07T00:30:16;22.50;;;17.67;;
23302;SDS011;11820;48.738;9.092;2024-01-07T00:32:43;18.10;;;16.10;;
23302;SDS011;11820;48.738;9.092;2024-01-07T00:35:08;22.23;;;18.17;;
23302;SDS011;11820;48.738;9.092;2024-01-07T00:37:33;21.97;;;17.93;;
23302;SDS011;11820;48.738;9.092;2024-01-07T00:40:00;21.47;;;17.83;;
23302;SDS011;11820;48.738;9.092;2024-01-07T00:42:25;21.87;;;17.60;;
23302;SDS011;11820;48.738;9.092;2024-01-07T00:44:51;21.77;;;17.97;;
23302;SDS011;11820;48.738;9.092;2024-01-07T00:47:16;22.17;;;18.23;;
23302;SDS011;11820;48.738;9.092;2024-01-07T00:49:42;22.43;;;18.13;;
23302;SDS011;11820;48.738;9.092;2024-01-07T00:52:07;24.63;;;18.40;;
23302;SDS011;11820;48.738;9.092;2024-01-07T00:54:33;23.33;;;18.30;;
23302;SDS011;11820;48.738;9.092;2024-01-07T00:56:59;23.53;;;17.73;;
23302;SDS011;11820;48.738;9.092;2024-01-07T00:59:24;24.10;;;18.50;;
23302;SDS011;11820;48.738;9.092;2024-01-07T01:01:49;23.90;;;19.27;;
23302;SDS011;11820;48.738;9.092;2024-01-07T01:04:15;23.50;;;18.60;;
23302;SDS011;11820;48.738;9.092;2024-01-07T01:06:40;24.57;;;18.93;;
23302;SDS011;11820;48.738;9.092;2024-01-07T01:09:05;27.80;;;19.50;;
23302;SDS011;11820;48.738;9.092;2024-01-07T01:11:31;28.93;;;19.60;;
23302;SDS011;11820;48.738;9.092;2024-01-07T01:13:56;27.50;;;19.93;;
23302;SDS011;11820;48.738;9.092;2024-01-07T01:16:21;30.70;;;20.60;;
23302;SDS011;11820;48.738;9.092;2024-01-07T01:18:49;31.40;;;20.80;;
23302;SDS011;11820;48.738;9.092;2024-01-07T01:21:14;28.43;;;19.43;;
23302;SDS011;11820;48.738;9.092;2024-01-07T01:23:40;44.90;;;18.30;;
23302;SDS011;11820;48.738;9.092;2024-01-07T01:26:05;43.93;;;19.00;;
23302;SDS011;11820;48.738;9.092;2024-01-07T01:28:30;72.63;;;20.37;;
23302;SDS011;11820;48.738;9.092;2024-01-07T01:30:56;32.63;;;19.30;;
23302;SDS011;11820;48.738;9.092;2024-01-07T01:33:21;30.90;;;18.77;;
23302;SDS011;11820;48.738;9.092;2024-01-07T01:35:46;53.10;;;17.40;;
23302;SDS011;11820;48.738;9.092;2024-01-07T01:38:11;53.13;;;19.07;;
23302;SDS011;11820;48.738;9.092;2024-01-07T01:40:37;68.83;;;19.10;;
23302;SDS011;11820;48.738;9.092;2024-01-07T01:43:03;116.67;;;18.80;;
23302;SDS011;11820;48.738;9.092;2024-01-07T01:45:28;75.10;;;19.00;;
23302;SDS011;11820;48.738;9.092;2024-01-07T01:47:54;118.00;;;21.47;;
23302;SDS011;11820;48.738;9.092;2024-01-07T01:50:19;87.93;;;19.47;;
23302;SDS011;11820;48.738;9.092;2024-01-07T01:52:45;103.57;;;17.93;;
23302;SDS011;11820;48.738;9.092;2024-01-07T01:55:11;148.70;;;21.27;;
23302;SDS011;11820;48.738;9.092;2024-01-07T01:57:36;133.73;;;20.80;;
23302;SDS011;11820;48.738;9.092;2024-01-07T02:00:04;121.20;;;20.30;;
23302;SDS011;11820;48.738;9.092;2024-01-07T02:02:31;355.53;;;26.13;;
23302;SDS011;11820;48.738;9.092;2024-01-07T02:04:59;180.50;;;21.20;;
23302;SDS011;11820;48.738;9.092;2024-01-07T02:07:28;282.87;;;23.63;;
23302;SDS011;11820;48.738;9.092;2024-01-07T02:09:55;122.50;;;19.87;;
23302;SDS011;11820;48.738;9.092;2024-01-07T02:12:20;232.20;;;23.57;;
23302;SDS011;11820;48.738;9.092;2024-01-07T02:14:45;128.70;;;20.90;;
23302;SDS011;11820;48.738;9.092;2024-01-07T02:17:10;126.27;;;22.63;;
23302;SDS011;11820;48.738;9.092;2024-01-07T02:19:36;51.53;;;21.50;;
23302;SDS011;11820;48.738;9.092;2024-01-07T02:22:01;159.20;;;24.60;;
23302;SDS011;11820;48.738;9.092;2024-01-07T02:24:27;168.00;;;23.20;;
23302;SDS011;11820;48.738;9.092;2024-01-07T02:26:52;111.90;;;22.50;;
23302;SDS011;11820;48.738;9.092;2024-01-07T02:29:17;80.90;;;22.60;;
23302;SDS011;11820;48.738;9.092;2024-01-07T02:31:43;295.17;;;25.83;;
23302;SDS011;11820;48.738;9.092;2024-01-07T02:34:11;136.93;;;24.37;;
23302;SDS011;11820;48.738;9.092;2024-01-07T02:36:36;216.10;;;26.87;;
23302;SDS011;11820;48.738;9.092;2024-01-07T02:39:02;314.20;;;28.17;;
23302;SDS011;11820;48.738;9.092;2024-01-07T02:41:27;305.53;;;29.67;;
23302;SDS011;11820;48.738;9.092;2024-01-07T02:43:53;125.87;;;25.57;;
23302;SDS011;11820;48.738;9.092;2024-01-07T02:46:19;100.17;;;27.03;;
23302;SDS011;11820;48.738;9.092;2024-01-07T02:48:45;336.87;;;30.53;;
23302;SDS011;11820;48.738;9.092;2024-01-07T02:51:10;113.33;;;26.40;;
23302;SDS011;11820;48.738;9.092;2024-01-07T02:53:36;325.83;;;31.73;;
23302;SDS011;11820;48.738;9.092;2024-01-07T02:56:01;58.37;;;27.03;;
23302;SDS011;11820;48.738;9.092;2024-01-07T02:58:26;153.47;;;28.63;;
23302;SDS011;11820;48.738;9.092;2024-01-07T03:00:52;56.37;;;25.97;;
23302;SDS011;11820;48.738;9.092;2024-01-07T03:03:17;40.97;;;27.00;;
23302;SDS011;11820;48.738;9.092;2024-01-07T03:05:43;46.07;;;26.93;;
23302;SDS011;11820;48.738;9.092;2024-01-07T03:08:08;48.90;;;27.93;;
23302;SDS011;11820;48.738;9.092;2024-01-07T03:10:33;43.43;;;27.77;;
23302;SDS011;11820;48.738;9.092;2024-01-07T03:13:00;44.47;;;27.57;;
23302;SDS011;11820;48.738;9.092;2024-01-07T03:15:25;44.70;;;27.10;;
23302;SDS011;11820;48.738;9.092;2024-01-07T03:17:51;44.27;;;28.00;;
23302;SDS011;11820;48.738;9.092;2024-01-07T03:20:16;43.50;;;26.23;;
23302;SDS011;11820;48.738;9.092;2024-01-07T03:22:41;42.03;;;28.13;;
23302;SDS011;11820;48.738;9.092;2024-01-07T03:25:07;45.03;;;26.40;;
23302;SDS011;11820;48.738;9.092;2024-01-07T03:27:32;43.87;;;27.70;;
23302;SDS011;11820;48.738;9.092;2024-01-07T03:29:58;45.33;;;26.97;;
23302;SDS011;11820;48.738;9.092;2024-01-07T03:32:23;43.13;;;27.40;;
23302;SDS011;11820;48.738;9.092;2024-01-07T03:34:48;40.73;;;26.53;;
23302;SDS011;11820;48.738;9.092;2024-01-07T03:37:13;43.20;;;27.47;;
23302;SDS011;11820;48.738;9.092;2024-01-07T03:39:39;42.50;;;27.57;;
23302;SDS011;11820;48.738;9.092;2024-01-07T03:42:04;43.60;;;26.30;;
23302;SDS011;11820;48.738;9.092;2024-01-07T03:44:36;39.50;;;26.00;;
23302;SDS011;11820;48.738;9.092;2024-01-07T03:47:01;37.83;;;24.93;;
23302;SDS011;11820;48.738;9.092;2024-01-07T03:49:26;40.63;;;26.60;;
23302;SDS011;11820;48.738;9.092;2024-01-07T03:51:52;42.43;;;26.63;;
23302;SDS011;11820;48.738;9.092;2024-01-07T03:54:17;35.80;;;25.10;;
23302;SDS011;11820;48.738;9.092;2024-01-07T03:56:42;39.13;;;25.87;;
23302;SDS011;11820;48.738;9.092;2024-01-07T03:59:08;38.53;;;24.77;;
23302;SDS011;11820;48.738;9.092;2024-01-07T04:01:33;37.50;;;25.37;;
23302;SDS011;11820;48.738;9.092;2024-01-07T04:03:58;34.17;;;23.53;;
23302;SDS011;11820;48.738;9.092;2024-01-07T04:06:23;38.53;;;24.90;;
23302;SDS011;11820;48.738;9.092;2024-01-07T04:08:49;36.80;;;24.47;;
23302;SDS011;11820;48.738;9.092;2024-01-07T04:11:14;37.33;;;24.53;;
23302;SDS011;11820;48.738;9.092;2024-01-07T04:13:39;38.27;;;24.67;;
23302;SDS011;11820;48.738;9.092;2024-01-07T04:16:05;37.53;;;26.00;;
23302;SDS011;11820;48.738;9.092;2024-01-07T04:18:30;33.57;;;24.07;;
23302;SDS011;11820;48.738;9.092;2024-01-07T04:20:55;33.40;;;22.73;;
23302;SDS011;11820;48.738;9.092;2024-01-07T04:23:21;36.20;;;23.87;;
23302;SDS011;11820;48.738;9.092;2024-01-07T04:25:46;31.10;;;23.53;;
23302;SDS011;11820;48.738;9.092;2024-01-07T04:28:11;33.60;;;23.20;;
23302;SDS011;11820;48.738;9.092;2024-01-07T04:30:37;29.37;;;21.70;;
23302;SDS011;11820;48.738;9.092;2024-01-07T04:33:02;29.93;;;20.77;;
23302;SDS011;11820;48.738;9.092;2024-01-07T04:35:28;29.70;;;21.50;;
23302;SDS011;11820;48.738;9.092;2024-01-07T04:37:53;27.90;;;20.63;;
23302;SDS011;11820;48.738;9.092;2024-01-07T04:40:19;29.87;;;21.07;;
23302;SDS011;11820;48.738;9.092;2024-01-07T04:42:44;28.20;;;20.13;;
23302;SDS011;11820;48.738;9.092;2024-01-07T04:45:09;26.57;;;20.33;;
23302;SDS011;11820;48.738;9.092;2024-01-07T04:47:35;28.03;;;21.20;;
23302;SDS011;11820;48.738;9.092;2024-01-07T04:50:00;31.80;;;22.50;;
23302;SDS011;11820;48.738;9.092;2024-01-07T04:52:26;29.47;;;22.00;;
23302;SDS011;11820;48.738;9.092;2024-01-07T04:54:52;30.43;;;21.47;;
23302;SDS011;11820;48.738;9.092;2024-01-07T04:57:21;26.67;;;20.83;;
23302;SDS011;11820;48.738;9.092;2024-01-07T04:59:47;26.67;;;18.83;;
23302;SDS011;11820;48.738;9.092;2024-01-07T05:02:13;27.90;;;19.43;;
23302;SDS011;11820;48.738;9.092;2024-01-07T05:04:38;31.53;;;21.53;;
23302;SDS011;11820;48.738;9.092;2024-01-07T05:07:04;28.87;;;20.57;;
23302;SDS011;11820;48.738;9.092;2024-01-07T05:09:30;26.77;;;19.57;;
23302;SDS011;11820;48.738;9.092;2024-01-07T05:11:57;26.13;;;19.13;;
23302;SDS011;11820;48.738;9.092;2024-01-07T05:14:22;27.37;;;19.63;;
23302;SDS011;11820;48.738;9.092;2024-01-07T05:16:47;25.57;;;18.70;;
23302;SDS011;11820;48.738;9.092;2024-01-07T05:19:13;23.90;;;18.67;;
23302;SDS011;11820;48.738;9.092;2024-01-07T05:21:38;25.80;;;19.00;;
23302;SDS011;11820;48.738;9.092;2024-01-07T05:24:04;26.87;;;19.83;;
23302;SDS011;11820;48.738;9.092;2024-01-07T05:26:30;26.10;;;17.33;;
23302;SDS011;11820;48.738;9.092;2024-01-07T05:28:55;22.83;;;17.53;;
23302;SDS011;11820;48.738;9.092;2024-01-07T05:31:21;24.80;;;18.37;;
23302;SDS011;11820;48.738;9.092;2024-01-07T05:33:47;23.53;;;17.50;;
23302;SDS011;11820;48.738;9.092;2024-01-07T05:36:12;23.40;;;16.93;;
23302;SDS011;11820;48.738;9.092;2024-01-07T05:38:38;22.07;;;15.40;;
23302;SDS011;11820;48.738;9.092;2024-01-07T05:41:03;21.80;;;15.97;;
23302;SDS011;11820;48.738;9.092;2024-01-07T05:43:29;21.77;;;15.40;;
23302;SDS011;11820;48.738;9.092;2024-01-07T05:45:55;20.33;;;15.73;;
23302;SDS011;11820;48.738;9.092;2024-01-07T05:48:21;22.43;;;16.87;;
23302;SDS011;11820;48.738;9.092;2024-01-07T05:50:47;21.33;;;16.33;;
23302;SDS011;11820;48.738;9.092;2024-01-07T05:53:12;18.73;;;15.03;;
23302;SDS011;11820;48.738;9.092;2024-01-07T05:55:37;23.10;;;17.17;;
23302;SDS011;11820;48.738;9.092;2024-01-07T05:58:03;23.37;;;16.30;;
23302;SDS011;11820;48.738;9.092;2024-01-07T06:00:28;25.00;;;17.83;;
23302;SDS011;11820;48.738;9.092;2024-01-07T06:02:53;25.20;;;18.63;;
23302;SDS011;11820;48.738;9.092;2024-01-07T06:05:19;24.27;;;17.40;;
23302;SDS011;11820;48.738;9.092;2024-01-07T06:07:44;26.00;;;18.13;;
23302;SDS011;11820;48.738;9.092;2024-01-07T06:10:09;20.87;;;16.80;;
23302;SDS011;11820;48.738;9.092;2024-01-07T06:12:35;23.30;;;16.90;;
23302;SDS011;11820;48.738;9.092;2024-01-07T06:15:00;22.70;;;17.73;;
23302;SDS011;11820;48.738;9.092;2024-01-07T06:17:25;26.63;;;18.33;;
23302;SDS011;11820;48.738;9.092;2024-01-07T06:19:51;22.90;;;18.67;;
23302;SDS011;11820;48.738;9.092;2024-01-07T06:22:16;23.67;;;18.37;;
23302;SDS011;11820;48.738;9.092;2024-01-07T06:24:41;24.97;;;17.23;;
23302;SDS011;11820;48.738;9.092;2024-01-07T06:27:07;21.57;;;17.40;;
23302;SDS011;11820;48.738;9.092;2024-01-07T06:29:32;25.13;;;17.10;;
23302;SDS011;11820;48.738;9.092;2024-01-07T06:31:58;22.93;;;16.73;;
23302;SDS011;11820;48.738;9.092;2024-01-07T06:34:24;22.40;;;17.53;;
23302;SDS011;11820;48.738;9.092;2024-01-07T06:36:49;21.10;;;17.73;;
23302;SDS011;11820;48.738;9.092;2024-01-07T06:39:17;22.63;;;17.20;;
23302;SDS011;11820;48.738;9.092;2024-01-07T06:41:43;22.83;;;17.80;;
23302;SDS011;11820;48.738;9.092;2024-01-07T06:44:08;25.80;;;17.43;;
23302;SDS011;11820;48.738;9.092;2024-01-07T06:46:33;20.53;;;17.73;;
23302;SDS011;11820;48.738;9.092;2024-01-07T06:49:01;24.87;;;18.60;;
23302;SDS011;11820;48.738;9.092;2024-01-07T06:51:27;25.43;;;18.47;;
23302;SDS011;11820;48.738;9.092;2024-01-07T06:53:52;21.50;;;18.27;;
23302;SDS011;11820;48.738;9.092;2024-01-07T06:56:18;23.33;;;18.20;;
23302;SDS011;11820;48.738;9.092;2024-01-07T06:58:43;24.57;;;18.63;;
23302;SDS011;11820;48.738;9.092;2024-01-07T07:01:09;21.33;;;17.13;;
23302;SDS011;11820;48.738;9.092;2024-01-07T07:03:35;20.77;;;17.63;;
23302;SDS011;11820;48.738;9.092;2024-01-07T07:06:00;21.67;;;16.93;;
23302;SDS011;11820;48.738;9.092;2024-01-07T07:08:25;20.57;;;17.17;;
23302;SDS011;11820;48.738;9.092;2024-01-07T07:10:51;21.37;;;16.63;;
23302;SDS011;11820;48.738;9.092;2024-01-07T07:13:17;20.20;;;16.63;;
23302;SDS011;11820;48.738;9.092;2024-01-07T07:15:42;21.80;;;17.13;;
23302;SDS011;11820;48.738;9.092;2024-01-07T07:18:07;20.00;;;17.07;;
23302;SDS011;11820;48.738;9.092;2024-01-07T07:20:33;19.10;;;15.07;;
23302;SDS011;11820;48.738;9.092;2024-01-07T07:22:58;19.60;;;14.57;;
23302;SDS011;11820;48.738;9.092;2024-01-07T07:25:24;17.30;;;15.47;;
23302;SDS011;11820;48.738;9.092;2024-01-07T07:27:49;21.10;;;16.67;;
23302;SDS011;11820;48.738;9.092;2024-01-07T07:30:15;19.60;;;15.07;;
23302;SDS011;11820;48.738;9.092;2024-01-07T07:32:41;17.43;;;14.73;;
23302;SDS011;11820;48.738;9.092;2024-01-07T07:35:06;17.97;;;15.83;;
23302;SDS011;11820;48.738;9.092;2024-01-07T07:37:32;15.97;;;14.20;;
23302;SDS011;11820;48.738;9.092;2024-01-07T07:39:57;16.53;;;13.87;;
23302;SDS011;11820;48.738;9.092;2024-01-07T07:42:23;15.63;;;12.97;;
23302;SDS011;11820;48.738;9.092;2024-01-07T07:44:48;16.17;;;13.03;;
23302;SDS011;11820;48.738;9.092;2024-01-07T07:47:13;17.47;;;13.13;;
23302;SDS011;11820;48.738;9.092;2024-01-07T07:49:39;16.43;;;12.50;;
23302;SDS011;11820;48.738;9.092;2024-01-07T07:52:06;14.07;;;12.13;;
23302;SDS011;11820;48.738;9.092;2024-01-07T07:54:33;13.10;;;11.67;;
23302;SDS011;11820;48.738;9.092;2024-01-07T07:56:58;13.17;;;11.60;;
23302;SDS011;11820;48.738;9.092;2024-01-07T07:59:24;14.30;;;11.50;;
23302;SDS011;11820;48.738;9.092;2024-01-07T08:01:49;11.83;;;10.13;;
23302;SDS011;11820;48.738;9.092;2024-01-07T08:04:15;11.50;;;10.30;;
23302;SDS011;11820;48.738;9.092;2024-01-07T08:06:40;12.93;;;10.67;;
23302;SDS011;11820;48.738;9.092;2024-01-07T08:09:07;10.67;;;9.57;;
23302;SDS011;11820;48.738;9.092;2024-01-07T08:11:33;11.57;;;9.87;;
23302;SDS011;11820;48.738;9.092;2024-01-07T08:13:58;12.83;;;10.37;;
23302;SDS011;11820;48.738;9.092;2024-01-07T08:16:24;12.00;;;10.03;;
23302;SDS011;11820;48.738;9.092;2024-01-07T08:18:49;11.90;;;10.07;;
23302;SDS011;11820;48.738;9.092;2024-01-07T08:21:15;12.53;;;10.23;;
23302;SDS011;11820;48.738;9.092;2024-01-07T08:23:40;12.90;;;10.77;;
23302;SDS011;11820;48.738;9.092;2024-01-07T08:26:05;11.90;;;9.87;;
23302;SDS011;11820;48.738;9.092;2024-01-07T08:28:30;11.67;;;9.67;;
23302;SDS011;11820;48.738;9.092;2024-01-07T08:30:56;13.40;;;9.90;;
23302;SDS011;11820;48.738;9.092;2024-01-07T08:33:21;12.60;;;9.97;;
23302;SDS011;11820;48.738;9.092;2024-01-07T08:35:46;13.43;;;10.33;;
23302;SDS011;11820;48.738;9.092;2024-01-07T08:38:12;10.60;;;9.50;;
23302;SDS011;11820;48.738;9.092;2024-01-07T08:40:37;10.53;;;8.80;;
23302;SDS011;11820;48.738;9.092;2024-01-07T08:43:04;11.67;;;9.50;;
23302;SDS011;11820;48.738;9.092;2024-01-07T08:45:29;9.73;;;8.70;;
23302;SDS011;11820;48.738;9.092;2024-01-07T08:47:55;10.50;;;8.80;;
23302;SDS011;11820;48.738;9.092;2024-01-07T08:50:20;13.13;;;10.47;;
23302;SDS011;11820;48.738;9.092;2024-01-07T08:52:46;11.97;;;9.57;;
23302;SDS011;11820;48.738;9.092;2024-01-07T08:55:12;12.07;;;10.30;;
23302;SDS011;11820;48.738;9.092;2024-01-07T08:57:37;13.23;;;10.17;;
23302;SDS011;11820;48.738;9.092;2024-01-07T09:00:03;12.63;;;9.73;;
23302;SDS011;11820;48.738;9.092;2024-01-07T09:02:30;11.90;;;10.00;;
23302;SDS011;11820;48.738;9.092;2024-01-07T09:04:55;14.07;;;10.30;;
23302;SDS011;11820;48.738;9.092;2024-01-07T09:07:22;14.70;;;10.10;;
23302;SDS011;11820;48.738;9.092;2024-01-07T09:09:48;11.33;;;10.13;;
23302;SDS011;11820;48.738;9.092;2024-01-07T09:12:13;12.53;;;9.73;;
23302;SDS011;11820;48.738;9.092;2024-01-07T09:14:38;9.53;;;8.10;;
23302;SDS011;11820;48.738;9.092;2024-01-07T09:17:04;11.70;;;8.93;;
23302;SDS011;11820;48.738;9.092;2024-01-07T09:19:29;9.27;;;8.27;;
23302;SDS011;11820;48.738;9.092;2024-01-07T09:21:55;10.40;;;9.20;;
23302;SDS011;11820;48.738;9.092;2024-01-07T09:24:20;9.07;;;7.70;;
23302;SDS011;11820;48.738;9.092;2024-01-07T09:26:45;8.47;;;6.37;;
23302;SDS011;11820;48.738;9.092;2024-01-07T09:29:11;6.63;;;5.90;;
23302;SDS011;11820;48.738;9.092;2024-01-07T09:31:37;7.60;;;6.37;;
23302;SDS011;11820;48.738;9.092;2024-01-07T09:34:02;8.37;;;7.23;;
23302;SDS011;11820;48.738;9.092;2024-01-07T09:36:28;7.40;;;6.60;;
23302;SDS011;11820;48.738;9.092;2024-01-07T09:38:54;7.07;;;6.33;;
23302;SDS011;11820;48.738;9.092;2024-01-07T09:41:19;7.30;;;6.60;;
23302;SDS011;11820;48.738;9.092;2024-01-07T09:43:44;8.63;;;6.87;;
23302;SDS011;11820;48.738;9.092;2024-01-07T09:46:10;8.13;;;6.60;;
23302;SDS011;11820;48.738;9.092;2024-01-07T09:48:35;8.10;;;6.93;;
23302;SDS011;11820;48.738;9.092;2024-01-07T09:51:01;7.83;;;7.03;;
23302;SDS011;11820;48.738;9.092;2024-01-07T09:53:29;7.73;;;6.33;;
23302;SDS011;11820;48.738;9.092;2024-01-07T09:56:04;8.07;;;6.40;;
23302;SDS011;11820;48.738;9.092;2024-01-07T09:58:37;6.90;;;6.20;;
23302;SDS011;11820;48.738;9.092;2024-01-07T10:01:02;7.23;;;5.67;;
23302;SDS011;11820;48.738;9.092;2024-01-07T10:03:30;6.23;;;5.63;;
23302;SDS011;11820;48.738;9.092;2024-01-07T10:05:55;6.00;;;5.40;;
23302;SDS011;11820;48.738;9.092;2024-01-07T10:08:20;6.50;;;5.63;;
23302;SDS011;11820;48.738;9.092;2024-01-07T10:10:48;6.53;;;4.87;;
23302;SDS011;11820;48.738;9.092;2024-01-07T10:13:13;6.57;;;5.83;;
23302;SDS011;11820;48.738;9.092;2024-01-07T10:15:39;6.20;;;5.60;;
23302;SDS011;11820;48.738;9.092;2024-01-07T10:18:04;6.60;;;5.70;;
23302;SDS011;11820;48.738;9.092;2024-01-07T10:20:31;7.50;;;5.77;;
23302;SDS011;11820;48.738;9.092;2024-01-07T10:23:00;5.90;;;5.33;;
23302;SDS011;11820;48.738;9.092;2024-01-07T10:25:31;6.23;;;5.60;;
23302;SDS011;11820;48.738;9.092;2024-01-07T10:28:00;5.83;;;5.13;;
23302;SDS011;11820;48.738;9.092;2024-01-07T10:30:26;8.23;;;6.57;;
23302;SDS011;11820;48.738;9.092;2024-01-07T10:32:55;8.97;;;7.10;;
23302;SDS011;11820;48.738;9.092;2024-01-07T10:35:23;7.43;;;6.47;;
23302;SDS011;11820;48.738;9.092;2024-01-07T10:37:53;8.27;;;7.00;;
23302;SDS011;11820;48.738;9.092;2024-01-07T10:40:18;9.40;;;7.30;;
23302;SDS011;11820;48.738;9.092;2024-01-07T10:42:44;8.40;;;7.23;;
23302;SDS011;11820;48.738;9.092;2024-01-07T10:45:10;8.13;;;7.37;;
23302;SDS011;11820;48.738;9.092;2024-01-07T10:47:35;9.37;;;6.80;;
23302;SDS011;11820;48.738;9.092;2024-01-07T10:50:01;7.30;;;6.30;;
23302;SDS011;11820;48.738;9.092;2024-01-07T10:52:28;8.00;;;7.20;;
23302;SDS011;11820;48.738;9.092;2024-01-07T10:54:56;7.40;;;5.80;;
23302;SDS011;11820;48.738;9.092;2024-01-07T10:57:38;7.70;;;6.83;;
23302;SDS011;11820;48.738;9.092;2024-01-07T11:00:15;7.60;;;6.63;;
23302;SDS011;11820;48.738;9.092;2024-01-07T11:02:55;6.93;;;6.23;;
23302;SDS011;11820;48.738;9.092;2024-01-07T11:07:56;7.97;;;7.00;;
23302;SDS011;11820;48.738;9.092;2024-01-07T11:10:38;7.90;;;6.17;;
23302;SDS011;11820;48.738;9.092;2024-01-07T11:13:08;7.03;;;6.23;;
23302;SDS011;11820;48.738;9.092;2024-01-07T11:18:18;8.23;;;7.33;;
23302;SDS011;11820;48.738;9.092;2024-01-07T11:20:44;8.63;;;7.00;;
23302;SDS011;11820;48.738;9.092;2024-01-07T11:23:30;8.07;;;6.77;;
23302;SDS011;11820;48.738;9.092;2024-01-07T11:26:04;9.87;;;7.20;;
23302;SDS011;11820;48.738;9.092;2024-01-07T11:28:50;7.93;;;6.50;;
23302;SDS011;11820;48.738;9.092;2024-01-07T11:31:17;8.40;;;6.80;;
23302;SDS011;11820;48.738;9.092;2024-01-07T11:33:48;7.70;;;6.73;;
23302;SDS011;11820;48.738;9.092;2024-01-07T11:36:15;8.50;;;6.40;;
23302;SDS011;11820;48.738;9.092;2024-01-07T11:38:41;9.50;;;6.77;;
23302;SDS011;11820;48.738;9.092;2024-01-07T11:41:13;7.00;;;6.30;;
23302;SDS011;11820;48.738;9.092;2024-01-07T11:43:51;8.10;;;6.93;;
23302;SDS011;11820;48.738;9.092;2024-01-07T11:46:21;7.23;;;6.13;;
23302;SDS011;11820;48.738;9.092;2024-01-07T11:48:47;7.07;;;6.37;;
23302;SDS011;11820;48.738;9.092;2024-01-07T11:51:13;7.23;;;6.47;;
23302;SDS011;11820;48.738;9.092;2024-01-07T11:53:39;7.57;;;6.77;;
23302;SDS011;11820;48.738;9.092;2024-01-07T11:56:04;7.93;;;5.73;;
23302;SDS011;11820;48.738;9.092;2024-01-07T11:58:30;7.77;;;6.47;;
23302;SDS011;11820;48.738;9.092;2024-01-07T12:00:55;7.50;;;6.70;;
23302;SDS011;11820;48.738;9.092;2024-01-07T12:03:20;7.40;;;6.60;;
23302;SDS011;11820;48.738;9.092;2024-01-07T12:05:45;7.10;;;6.17;;
23302;SDS011;11820;48.738;9.092;2024-01-07T12:08:12;8.87;;;6.60;;
23302;SDS011;11820;48.738;9.092;2024-01-07T12:10:38;6.70;;;5.87;;
23302;SDS011;11820;48.738;9.092;2024-01-07T12:13:03;8.10;;;6.90;;
23302;SDS011;11820;48.738;9.092;2024-01-07T12:15:29;6.87;;;6.17;;
23302;SDS011;11820;48.738;9.092;2024-01-07T12:17:58;7.30;;;6.37;;
23302;SDS011;11820;48.738;9.092;2024-01-07T12:20:25;7.07;;;6.43;;
23302;SDS011;11820;48.738;9.092;2024-01-07T12:22:51;7.00;;;6.03;;
23302;SDS011;11820;48.738;9.092;2024-01-07T12:25:20;8.43;;;7.27;;
23302;SDS011;11820;48.738;9.092;2024-01-07T12:27:50;8.07;;;6.83;;
23302;SDS011;11820;48.738;9.092;2024-01-07T12:30:18;8.00;;;7.10;;
23302;SDS011;11820;48.738;9.092;2024-01-07T12:32:44;7.07;;;6.37;;
23302;SDS011;11820;48.738;9.092;2024-01-07T12:35:10;7.93;;;6.70;;
23302;SDS011;11820;48.738;9.092;2024-01-07T12:37:36;8.60;;;7.30;;
23302;SDS011;11820;48.738;9.092;2024-01-07T12:40:02;7.23;;;6.53;;
23302;SDS011;11820;48.738;9.092;2024-01-07T12:42:27;8.27;;;6.93;;
23302;SDS011;11820;48.738;9.092;2024-01-07T12:44:53;9.50;;;7.70;;
23302;SDS011;11820;48.738;9.092;2024-01-07T12:47:19;8.30;;;7.20;;
23302;SDS011;11820;48.738;9.092;2024-01-07T12:49:44;8.40;;;7.50;;
23302;SDS011;11820;48.738;9.092;2024-01-07T12:52:09;8.53;;;7.63;;
23302;SDS011;11820;48.738;9.092;2024-01-07T12:54:35;9.37;;;8.27;;
23302;SDS011;11820;48.738;9.092;2024-01-07T12:57:00;9.93;;;8.07;;
23302;SDS011;11820;48.738;9.092;2024-01-07T12:59:26;9.37;;;8.00;;
23302;SDS011;11820;48.738;9.092;2024-01-07T13:01:51;9.33;;;8.13;;
23302;SDS011;11820;48.738;9.092;2024-01-07T13:04:17;11.27;;;8.77;;
23302;SDS011;11820;48.738;9.092;2024-01-07T13:06:42;11.80;;;9.17;;
23302;SDS011;11820;48.738;9.092;2024-01-07T13:09:08;10.10;;;8.37;;
23302;SDS011;11820;48.738;9.092;2024-01-07T13:11:34;10.63;;;9.20;;
23302;SDS011;11820;48.738;9.092;2024-01-07T13:13:59;11.73;;;10.23;;
23302;SDS011;11820;48.738;9.092;2024-01-07T13:16:26;11.17;;;9.43;;
23302;SDS011;11820;48.738;9.092;2024-01-07T13:18:52;10.40;;;9.00;;
23302;SDS011;11820;48.738;9.092;2024-01-07T13:21:18;11.13;;;9.73;;
23302;SDS011;11820;48.738;9.092;2024-01-07T13:23:43;11.83;;;9.63;;
23302;SDS011;11820;48.738;9.092;2024-01-07T13:26:09;11.47;;;9.70;;
23302;SDS011;11820;48.738;9.092;2024-01-07T13:28:35;11.57;;;9.73;;
23302;SDS011;11820;48.738;9.092;2024-01-07T13:31:00;11.43;;;9.93;;
23302;SDS011;11820;48.738;9.092;2024-01-07T13:33:26;11.20;;;9.67;;
23302;SDS011;11820;48.738;9.092;2024-01-07T13:35:51;12.37;;;10.10;;
23302;SDS011;11820;48.738;9.092;2024-01-07T13:38:16;17.00;;;11.13;;
23302;SDS011;11820;48.738;9.092;2024-01-07T13:40:42;11.90;;;9.97;;
23302;SDS011;11820;48.738;9.092;2024-01-07T13:43:07;11.13;;;9.77;;
23302;SDS011;11820;48.738;9.092;2024-01-07T13:45:32;11.33;;;10.13;;
23302;SDS011;11820;48.738;9.092;2024-01-07T13:47:57;10.73;;;9.17;;
23302;SDS011;11820;48.738;9.092;2024-01-07T13:50:23;10.33;;;9.23;;
23302;SDS011;11820;48.738;9.092;2024-01-07T13:52:48;12.07;;;10.77;;
23302;SDS011;11820;48.738;9.092;2024-01-07T13:55:13;10.90;;;9.20;;
23302;SDS011;11820;48.738;9.092;2024-01-07T13:57:39;11.33;;;9.20;;
23302;SDS011;11820;48.738;9.092;2024-01-07T14:00:06;11.70;;;8.80;;
23302;SDS011;11820;48.738;9.092;2024-01-07T14:02:34;10.27;;;9.27;;
23302;SDS011;11820;48.738;9.092;2024-01-07T14:05:04;13.53;;;9.33;;
23302;SDS011;11820;48.738;9.092;2024-01-07T14:07:31;10.60;;;8.80;;
23302;SDS011;11820;48.738;9.092;2024-01-07T14:09:57;13.43;;;9.07;;
23302;SDS011;11820;48.738;9.092;2024-01-07T14:12:23;13.13;;;10.57;;
23302;SDS011;11820;48.738;9.092;2024-01-07T14:14:49;11.47;;;9.57;;
23302;SDS011;11820;48.738;9.092;2024-01-07T14:17:14;11.57;;;9.67;;
23302;SDS011;11820;48.738;9.092;2024-01-07T14:19:40;11.97;;;10.10;;
23302;SDS011;11820;48.738;9.092;2024-01-07T14:22:05;12.97;;;10.07;;
23302;SDS011;11820;48.738;9.092;2024-01-07T14:24:30;11.63;;;9.67;;
23302;SDS011;11820;48.738;9.092;2024-01-07T14:26:56;12.53;;;10.03;;